Time;durP1;ratioP1;P1;durP2;ratioP2;P2;SDS_P1;SDS_P2;PMS_P1;PMS_P2;Temp;Humidity;BMP_temperature;BMP_pressure;BME280_temperature;BME280_humidity;BME280_pressure;Samples;Min_cycle;Max_cycle;Signal;HPM_P1;HPM_P2
2021/07/03 00:01:31;;;;;;;24.10;13.20;;;;;;;30.92;nan;101156.59;5047497;28;20464;-47
2021/07/03 00:03:59;;;;;;;20.13;13.27;;;;;;;31.13;nan;101157.56;5056548;28;20456;-46
2021/07/03 00:06:27;;;;;;;19.60;12.30;;;;;;;30.99;nan;101157.22;5046991;28;20771;-45
2021/07/03 00:08:54;;;;;;;22.97;13.23;;;;;;;30.61;nan;101154.19;5055936;28;20488;-45
2021/07/03 00:11:22;;;;;;;18.33;12.23;;;;;;;30.89;nan;101158.50;5046890;28;20460;-43
2021/07/03 00:13:50;;;;;;;19.43;13.70;;;;;;;31.07;nan;101156.94;5055911;28;20469;-45
2021/07/03 00:16:18;;;;;;;28.23;16.20;;;;;;;30.78;nan;101157.13;5054916;28;20460;-45
2021/07/03 00:18:46;;;;;;;25.83;14.50;;;;;;;30.91;nan;101168.16;5055468;28;20510;-46
2021/07/03 00:21:13;;;;;;;22.97;14.80;;;;;;;30.85;nan;101160.41;5054961;28;20966;-45
2021/07/03 00:23:41;;;;;;;27.53;14.80;;;;;;;30.48;nan;101151.97;5055767;28;20492;-44
2021/07/03 00:26:09;;;;;;;26.20;15.60;;;;;;;30.38;nan;101153.19;5054511;28;20462;-53
2021/07/03 00:28:36;;;;;;;23.83;14.73;;;;;;;30.51;nan;101151.88;5055731;28;20495;-46
2021/07/03 00:31:05;;;;;;;24.90;14.33;;;;;;;30.09;nan;101152.44;5055601;28;20982;-47
2021/07/03 00:33:33;;;;;;;26.40;15.10;;;;;;;30.02;nan;101155.28;5054317;28;20488;-45
2021/07/03 00:36:00;;;;;;;23.90;14.73;;;;;;;30.44;nan;101152.97;5055540;28;20467;-43
2021/07/03 00:38:28;;;;;;;23.37;15.47;;;;;;;30.59;nan;101149.78;5054468;28;20854;-43
2021/07/03 00:40:55;;;;;;;26.00;15.93;;;;;;;30.90;nan;101146.94;5055403;28;20770;-44
2021/07/03 00:43:23;;;;;;;26.90;16.57;;;;;;;30.85;nan;101145.31;5048555;28;20790;-46
2021/07/03 00:45:51;;;;;;;31.70;16.00;;;;;;;31.03;nan;101153.53;5055511;28;20598;-45
2021/07/03 00:48:20;;;;;;;24.03;15.60;;;;;;;30.94;nan;101156.53;5054285;28;20787;-46
2021/07/03 00:50:47;;;;;;;29.50;16.77;;;;;;;31.10;nan;101155.03;5055699;28;20765;-45
2021/07/03 00:53:16;;;;;;;29.20;18.33;;;;;;;31.07;nan;101154.28;5054141;28;20483;-45
2021/07/03 00:55:45;;;;;;;24.27;16.53;;;;;;;30.81;nan;101157.00;5055350;28;20463;-45
2021/07/03 00:58:13;;;;;;;27.40;17.57;;;;;;;29.53;nan;101151.56;5055099;28;20496;-45
2021/07/03 01:00:41;;;;;;;25.27;16.20;;;;;;;29.98;nan;101158.09;5055509;28;20515;-43
2021/07/03 01:03:08;;;;;;;27.17;17.50;;;;;;;29.81;nan;101159.53;5055453;28;20482;-46
2021/07/03 01:05:37;;;;;;;27.00;16.90;;;;;;;29.86;nan;101156.72;5055400;28;20459;-46
2021/07/03 01:08:05;;;;;;;30.70;16.57;;;;;;;30.25;nan;101153.63;5060058;28;20979;-46
2021/07/03 01:10:33;;;;;;;21.73;15.87;;;;;;;30.55;nan;101158.78;5055802;28;20483;-45
2021/07/03 01:13:00;;;;;;;30.43;16.23;;;;;;;30.56;nan;101154.34;5053935;28;20483;-45
2021/07/03 01:15:28;;;;;;;29.87;16.90;;;;;;;30.43;nan;101156.56;5055198;28;20835;-46
2021/07/03 01:17:56;;;;;;;25.50;18.07;;;;;;;30.31;nan;101156.06;5053894;28;20483;-45
2021/07/03 01:20:25;;;;;;;27.13;16.70;;;;;;;30.62;nan;101158.56;5055020;28;20471;-43
2021/07/03 01:22:54;;;;;;;26.80;16.40;;;;;;;30.67;nan;101161.94;5053554;28;20478;-46
2021/07/03 01:25:22;;;;;;;27.37;15.47;;;;;;;30.99;nan;101163.44;5055257;28;20470;-45
2021/07/03 01:27:58;;;;;;;23.27;15.37;;;;;;;30.85;nan;101160.41;5053948;28;20798;-45
2021/07/03 01:30:26;;;;;;;30.43;19.00;;;;;;;30.12;nan;101154.97;5055006;28;20487;-46
2021/07/03 01:32:53;;;;;;;30.07;19.43;;;;;;;30.02;nan;101155.28;5053572;28;20497;-44
2021/07/03 01:35:26;;;;;;;26.10;17.70;;;;;;;30.09;nan;101155.09;5057670;28;20473;-46
2021/07/03 01:37:55;;;;;;;26.70;17.90;;;;;;;30.02;nan;101155.28;5057797;28;20954;-45
2021/07/03 01:40:22;;;;;;;26.30;17.27;;;;;;;30.04;nan;101156.09;5059041;28;20478;-43
2021/07/03 01:42:50;;;;;;;34.67;21.87;;;;;;;30.10;nan;101157.72;5057480;28;20479;-45
2021/07/03 01:45:17;;;;;;;25.97;18.27;;;;;;;30.50;nan;101160.75;5058990;28;20472;-43
2021/07/03 01:47:46;;;;;;;27.07;17.30;;;;;;;31.04;nan;101154.38;5057264;28;20489;-44
2021/07/03 01:50:14;;;;;;;30.70;18.83;;;;;;;31.32;nan;101153.34;5058696;28;20560;-43
2021/07/03 01:52:42;;;;;;;29.93;18.50;;;;;;;31.35;nan;101148.78;5057465;28;20486;-44
2021/07/03 01:55:12;;;;;;;23.93;16.27;;;;;;;30.97;nan;101146.63;5056072;28;20538;-46
2021/07/03 01:57:40;;;;;;;29.23;17.17;;;;;;;30.71;nan;101147.63;5056835;28;20494;-47
2021/07/03 02:00:10;;;;;;;24.73;17.40;;;;;;;30.25;nan;101143.00;5058473;28;20821;-46
2021/07/03 02:02:38;;;;;;;29.87;17.57;;;;;;;30.40;nan;101146.06;5057568;28;20488;-42
2021/07/03 02:05:08;;;;;;;25.80;16.80;;;;;;;30.43;nan;101149.47;5058582;28;20742;-43
2021/07/03 02:07:35;;;;;;;32.50;20.90;;;;;;;30.25;nan;101150.13;5056983;28;20480;-45
2021/07/03 02:10:04;;;;;;;32.40;21.17;;;;;;;29.98;nan;101147.47;5058563;28;20499;-45
2021/07/03 02:12:33;;;;;;;40.80;21.53;;;;;;;29.81;nan;101151.56;5057322;28;20484;-44
2021/07/03 02:15:01;;;;;;;32.23;19.13;;;;;;;29.58;nan;101144.34;5058489;28;20465;-46
2021/07/03 02:17:29;;;;;;;28.40;18.70;;;;;;;29.98;nan;101152.78;5056879;28;20483;-45
2021/07/03 02:19:57;;;;;;;27.00;18.40;;;;;;;30.20;nan;101144.09;5058198;28;20476;-46
2021/07/03 02:22:24;;;;;;;27.40;16.20;;;;;;;30.06;nan;101145.41;5056566;28;20478;-45
2021/07/03 02:24:52;;;;;;;32.57;19.17;;;;;;;30.13;nan;101138.97;5058199;28;20449;-43
2021/07/03 02:27:19;;;;;;;28.27;18.40;;;;;;;30.15;nan;101133.63;5052252;28;20486;-46
2021/07/03 02:29:48;;;;;;;28.50;19.60;;;;;;;30.53;nan;101139.34;5057975;28;20489;-46
2021/07/03 02:32:17;;;;;;;28.30;18.93;;;;;;;30.10;nan;101135.56;5048043;28;20928;-45
2021/07/03 02:34:44;;;;;;;29.67;18.57;;;;;;;29.91;nan;101136.16;5057887;28;20462;-45
2021/07/03 02:37:12;;;;;;;34.80;19.83;;;;;;;30.52;nan;101137.63;5056342;28;20484;-45
2021/07/03 02:39:39;;;;;;;28.90;17.00;;;;;;;30.53;nan;101131.38;5058051;28;20473;-47
2021/07/03 02:42:07;;;;;;;26.10;17.97;;;;;;;30.25;nan;101135.00;5056768;28;20480;-43
2021/07/03 02:44:35;;;;;;;29.80;19.23;;;;;;;30.09;nan;101131.16;5057765;28;20461;-45
2021/07/03 02:47:04;;;;;;;30.10;17.07;;;;;;;30.18;nan;101129.06;5055091;28;20483;-45
2021/07/03 02:49:31;;;;;;;29.33;18.23;;;;;;;30.07;nan;101132.97;5057608;28;20995;-44
2021/07/03 02:51:59;;;;;;;34.47;21.60;;;;;;;29.85;nan;101131.94;5056509;28;20482;-45
2021/07/03 02:54:27;;;;;;;29.50;17.27;;;;;;;30.18;nan;101129.06;5057816;28;20464;-46
2021/07/03 02:56:57;;;;;;;31.40;18.53;;;;;;;30.26;nan;101130.56;5055912;28;20509;-45
2021/07/03 02:59:25;;;;;;;28.83;18.90;;;;;;;29.57;nan;101132.81;5057541;28;20797;-44
2021/07/03 03:01:52;;;;;;;27.60;18.67;;;;;;;29.03;nan;101130.03;5052091;28;20504;-43
2021/07/03 03:04:22;;;;;;;29.10;19.60;;;;;;;29.04;nan;101134.44;5067691;28;20767;-46
2021/07/03 03:06:49;;;;;;;38.50;20.90;;;;;;;29.27;nan;101137.31;5051223;28;20550;-45
2021/07/03 03:09:17;;;;;;;31.90;18.30;;;;;;;29.51;nan;101139.22;5067618;28;20482;-43
2021/07/03 03:11:44;;;;;;;31.00;18.53;;;;;;;29.81;nan;101142.69;5050652;28;20496;-44
2021/07/03 03:14:12;;;;;;;44.10;21.20;;;;;;;30.09;nan;101141.81;5068189;28;20458;-43
2021/07/03 03:16:40;;;;;;;32.07;20.00;;;;;;;30.20;nan;101147.63;5055836;28;20472;-46
2021/07/03 03:19:07;;;;;;;27.03;18.13;;;;;;;29.95;nan;101135.16;5057101;28;20467;-44
2021/07/03 03:21:36;;;;;;;39.03;20.00;;;;;;;30.07;nan;101135.63;5049470;28;20505;-46
2021/07/03 03:24:04;;;;;;;47.37;19.40;;;;;;;29.98;nan;101123.53;5069402;28;20462;-43
2021/07/03 03:26:32;;;;;;;41.10;20.53;;;;;;;29.72;nan;101134.13;5049426;28;20469;-44
2021/07/03 03:29:00;;;;;;;32.30;20.87;;;;;;;30.21;nan;101132.53;5069525;28;20462;-45
2021/07/03 03:31:28;;;;;;;32.67;21.03;;;;;;;30.39;nan;101139.00;5048439;28;20493;-44
2021/07/03 03:33:56;;;;;;;34.33;21.17;;;;;;;30.37;nan;101135.50;5070125;28;20536;-46
2021/07/03 03:36:24;;;;;;;29.27;19.70;;;;;;;29.83;nan;101138.22;5046134;28;20476;-44
2021/07/03 03:38:53;;;;;;;34.27;20.90;;;;;;;30.06;nan;101137.44;5070404;28;20463;-43
2021/07/03 03:41:20;;;;;;;34.23;21.40;;;;;;;30.00;nan;101140.31;5046625;28;20459;-45
2021/07/03 03:43:48;;;;;;;39.17;21.77;;;;;;;30.02;nan;101134.00;5057025;28;20486;-44
2021/07/03 03:46:15;;;;;;;34.10;20.77;;;;;;;30.04;nan;101128.66;5044152;28;20786;-47
2021/07/03 03:48:43;;;;;;;32.33;21.30;;;;;;;29.37;nan;101130.75;5071209;28;20496;-44
2021/07/03 03:51:17;;;;;;;33.73;21.50;;;;;;;29.91;nan;101137.03;5044516;28;20489;-43
2021/07/03 03:53:45;;;;;;;32.77;21.97;;;;;;;29.59;nan;101141.59;5070806;28;21015;-45
2021/07/03 03:56:16;;;;;;;37.10;22.97;;;;;;;29.49;nan;101141.03;5045653;28;20466;-43
2021/07/03 03:58:44;;;;;;;34.60;22.77;;;;;;;29.76;nan;101148.16;5070922;28;20489;-44
2021/07/03 04:01:11;;;;;;;36.03;21.83;;;;;;;30.01;nan;101156.22;5045553;28;20480;-43
2021/07/03 04:03:39;;;;;;;34.57;21.90;;;;;;;30.24;nan;101156.38;5056213;28;20488;-44
2021/07/03 04:06:06;;;;;;;38.67;22.87;;;;;;;30.03;nan;101151.69;5055571;28;20467;-44
2021/07/03 04:08:34;;;;;;;38.57;24.80;;;;;;;29.43;nan;101149.16;5055690;28;20471;-46
2021/07/03 04:11:02;;;;;;;35.47;22.93;;;;;;;29.40;nan;101154.59;5056010;28;20486;-44
2021/07/03 04:13:31;;;;;;;38.20;23.13;;;;;;;29.54;nan;101151.53;5054727;28;20476;-44
2021/07/03 04:15:58;;;;;;;30.47;20.80;;;;;;;29.78;nan;101162.28;5055915;28;20542;-42
2021/07/03 04:18:26;;;;;;;33.77;21.17;;;;;;;30.01;nan;101158.88;5054442;28;20765;-44
2021/07/03 04:20:53;;;;;;;33.50;20.77;;;;;;;30.01;nan;101148.22;5055681;28;20477;-46
2021/07/03 04:23:21;;;;;;;32.33;18.80;;;;;;;29.70;nan;101148.38;5054677;28;20491;-44
2021/07/03 04:25:48;;;;;;;30.50;21.17;;;;;;;29.98;nan;101145.66;5055528;28;20533;-45
2021/07/03 04:28:16;;;;;;;36.53;20.90;;;;;;;30.02;nan;101159.72;5054465;28;20496;-44
2021/07/03 04:30:45;;;;;;;36.20;21.70;;;;;;;30.28;nan;101150.00;5055670;28;20485;-44
2021/07/03 04:33:13;;;;;;;28.60;19.03;;;;;;;29.91;nan;101155.66;5054389;28;20569;-44
2021/07/03 04:35:40;;;;;;;33.63;21.53;;;;;;;29.98;nan;101153.63;5055347;28;20784;-45
2021/07/03 04:38:08;;;;;;;34.37;21.07;;;;;;;29.43;nan;101157.13;5059897;28;20479;-47
2021/07/03 04:40:36;;;;;;;33.33;22.53;;;;;;;29.93;nan;101160.91;5055848;28;20488;-45
2021/07/03 04:43:03;;;;;;;34.67;21.80;;;;;;;30.07;nan;101152.47;5054364;28;20487;-45
2021/07/03 04:45:31;;;;;;;35.87;22.53;;;;;;;29.80;nan;101154.25;5055353;28;20759;-45
2021/07/03 04:47:59;;;;;;;37.43;22.93;;;;;;;29.82;nan;101147.13;5054179;28;20491;-43
2021/07/03 04:50:27;;;;;;;37.50;22.80;;;;;;;30.37;nan;101148.81;5055623;28;20797;-43
2021/07/03 04:52:55;;;;;;;38.33;23.03;;;;;;;30.61;nan;101141.75;5054402;28;20803;-43
2021/07/03 04:55:22;;;;;;;42.47;23.73;;;;;;;30.05;nan;101149.84;5055359;28;20458;-45
2021/07/03 04:57:51;;;;;;;38.83;22.50;;;;;;;30.07;nan;101152.47;5048782;28;20485;-47
2021/07/03 05:00:19;;;;;;;34.73;22.10;;;;;;;30.22;nan;101145.78;5055344;28;20476;-44
2021/07/03 05:02:47;;;;;;;31.73;22.10;;;;;;;30.13;nan;101146.09;5054305;28;20482;-43
2021/07/03 05:05:16;;;;;;;34.37;22.87;;;;;;;30.18;nan;101154.78;5055511;28;20462;-48
2021/07/03 05:07:43;;;;;;;39.43;22.47;;;;;;;30.35;nan;101148.00;5053894;28;20488;-44
2021/07/03 05:10:12;;;;;;;39.43;21.97;;;;;;;30.76;nan;101145.63;5054763;28;20478;-45
2021/07/03 05:12:40;;;;;;;31.33;21.97;;;;;;;31.04;nan;101151.72;5055667;28;20534;-44
2021/07/03 05:15:09;;;;;;;41.90;22.57;;;;;;;30.74;nan;101147.50;5058808;28;20546;-43
2021/07/03 05:17:37;;;;;;;30.43;21.17;;;;;;;30.34;nan;101148.94;5053877;28;20491;-44
2021/07/03 05:20:07;;;;;;;30.10;20.20;;;;;;;30.55;nan;101150.81;5055109;28;20954;-45
2021/07/03 05:22:36;;;;;;;32.60;20.60;;;;;;;30.20;nan;101154.72;5054838;28;20493;-44
2021/07/03 05:25:05;;;;;;;33.80;20.60;;;;;;;30.67;nan;101151.28;5059333;28;20490;-46
2021/07/03 05:27:32;;;;;;;27.80;18.40;;;;;;;29.99;nan;101155.38;5053396;28;20476;-43
2021/07/03 05:30:00;;;;;;;27.83;18.63;;;;;;;29.74;nan;101148.22;5054559;28;20961;-45
2021/07/03 05:32:27;;;;;;;27.13;18.30;;;;;;;29.59;nan;101157.56;5053427;28;20488;-46
2021/07/03 05:34:55;;;;;;;27.87;17.53;;;;;;;30.35;nan;101153.31;5054950;28;20885;-46
2021/07/03 05:37:23;;;;;;;24.10;16.57;;;;;;;30.31;nan;101161.41;5053626;28;20483;-44
2021/07/03 05:39:51;;;;;;;27.27;17.00;;;;;;;30.35;nan;101156.84;5055118;28;20484;-45
2021/07/03 05:42:19;;;;;;;26.03;17.00;;;;;;;30.73;nan;101156.41;5053683;28;20789;-44
2021/07/03 05:44:47;;;;;;;20.70;13.63;;;;;;;31.19;nan;101160.91;5055238;28;20475;-43
2021/07/03 05:47:14;;;;;;;22.57;13.00;;;;;;;30.71;nan;101159.13;5048852;28;20917;-46
2021/07/03 05:49:42;;;;;;;18.90;12.37;;;;;;;30.99;nan;101157.22;5055082;28;20484;-44
2021/07/03 05:52:10;;;;;;;22.17;11.57;;;;;;;31.33;nan;101155.94;5053629;28;20495;-43
2021/07/03 05:54:37;;;;;;;15.50;10.80;;;;;;;30.53;nan;101154.44;5054934;28;20778;-44
2021/07/03 05:57:06;;;;;;;15.50;10.67;;;;;;;30.01;nan;101156.22;5052854;28;20475;-46
2021/07/03 05:59:34;;;;;;;14.70;8.80;;;;;;;30.97;nan;101162.59;5055005;28;20480;-50
2021/07/03 06:02:01;;;;;;;15.43;9.17;;;;;;;30.64;nan;101156.72;5053766;28;20484;-48
2021/07/03 06:04:29;;;;;;;15.37;9.97;;;;;;;31.16;nan;101156.56;5054900;28;20455;-50
2021/07/03 06:06:56;;;;;;;14.50;9.83;;;;;;;31.61;nan;101156.63;5044697;28;20508;-44
2021/07/03 06:09:24;;;;;;;15.53;8.07;;;;;;;31.43;nan;101150.25;5063992;28;20479;-44
2021/07/03 06:11:51;;;;;;;14.33;8.20;;;;;;;31.51;nan;101151.69;5053131;28;20496;-47
2021/07/03 06:14:20;;;;;;;11.50;7.40;;;;;;;31.22;nan;101152.81;5054923;28;20466;-43
2021/07/03 06:16:48;;;;;;;12.20;7.80;;;;;;;30.46;nan;101156.47;5051016;28;20488;-43
2021/07/03 06:19:19;;;;;;;15.80;9.30;;;;;;;31.24;nan;101161.59;5054168;28;20484;-46
2021/07/03 06:21:47;;;;;;;19.70;8.33;;;;;;;31.51;nan;101159.69;5055622;28;20650;-44
2021/07/03 06:24:14;;;;;;;14.97;9.00;;;;;;;31.54;nan;101158.69;5057818;28;20780;-45
2021/07/03 06:26:42;;;;;;;13.50;7.77;;;;;;;31.54;nan;101158.69;5056350;28;20477;-46
2021/07/03 06:29:10;;;;;;;13.40;8.20;;;;;;;31.58;nan;101156.78;5057646;28;20461;-44
2021/07/03 06:31:39;;;;;;;11.13;6.67;;;;;;;31.39;nan;101157.50;5056211;28;20790;-47
2021/07/03 06:34:07;;;;;;;19.53;11.37;;;;;;;31.67;nan;101159.03;5057488;28;20515;-47
2021/07/03 06:36:35;;;;;;;18.30;9.80;;;;;;;31.75;nan;101156.06;5055588;28;20518;-45
2021/07/03 06:39:03;;;;;;;12.77;8.43;;;;;;;31.65;nan;101156.47;5057482;28;20458;-49
2021/07/03 06:41:31;;;;;;;25.37;10.63;;;;;;;31.51;nan;101150.81;5056545;28;20821;-51
2021/07/03 06:43:58;;;;;;;14.03;8.00;;;;;;;31.19;nan;101158.25;5057460;28;20458;-43
2021/07/03 06:46:28;;;;;;;19.30;7.97;;;;;;;31.29;nan;101149.00;5055431;28;20452;-45
2021/07/03 06:48:57;;;;;;;13.33;7.13;;;;;;;30.91;nan;101154.84;5057221;28;20557;-44
2021/07/03 06:51:25;;;;;;;14.87;9.63;;;;;;;31.27;nan;101152.66;5056159;28;20458;-44
2021/07/03 06:53:53;;;;;;;10.90;6.40;;;;;;;31.49;nan;101144.69;5057332;28;20480;-44
2021/07/03 06:56:21;;;;;;;21.77;12.97;;;;;;;31.02;nan;101154.47;5055669;28;20462;-46
2021/07/03 06:58:48;;;;;;;9.10;5.70;;;;;;;30.79;nan;101156.19;5056869;28;20467;-46
2021/07/03 07:01:16;;;;;;;11.50;5.70;;;;;;;30.85;nan;101153.31;5054492;28;20483;-44
2021/07/03 07:03:44;;;;;;;9.63;5.40;;;;;;;30.56;nan;101160.53;5056932;28;20954;-47
2021/07/03 07:06:13;;;;;;;14.43;7.30;;;;;;;31.61;nan;101160.19;5055406;28;20469;-46
2021/07/03 07:08:40;;;;;;;12.10;5.20;;;;;;;31.77;nan;101164.84;5056641;28;20491;-44
2021/07/03 07:11:08;;;;;;;22.73;8.40;;;;;;;31.92;nan;101158.94;5056629;28;20475;-46
2021/07/03 07:13:35;;;;;;;28.70;21.23;;;;;;;32.57;nan;101149.06;5056418;28;20489;-45
2021/07/03 07:16:03;;;;;;;12.20;7.23;;;;;;;32.14;nan;101155.34;5053751;28;20548;-46
2021/07/03 07:18:31;;;;;;;7.13;5.20;;;;;;;32.32;nan;101150.13;5055390;28;20490;-44
2021/07/03 07:20:58;;;;;;;11.40;5.97;;;;;;;32.23;nan;101159.41;5056454;28;20940;-48
2021/07/03 07:23:27;;;;;;;12.90;7.97;;;;;;;32.03;nan;101149.59;5055183;28;20482;-48
2021/07/03 07:25:55;;;;;;;11.20;5.53;;;;;;;31.55;nan;101147.09;5055785;28;20482;-43
2021/07/03 07:28:22;;;;;;;11.67;6.93;;;;;;;32.40;nan;101145.34;5054863;28;20479;-45
2021/07/03 07:30:50;;;;;;;19.33;11.77;;;;;;;32.13;nan;101150.94;5056351;28;20482;-46
2021/07/03 07:33:17;;;;;;;12.70;8.70;;;;;;;31.74;nan;101154.34;5054396;28;20797;-45
2021/07/03 07:35:45;;;;;;;7.53;5.20;;;;;;;31.13;nan;101156.72;5056012;28;20889;-45
2021/07/03 07:38:12;;;;;;;27.97;14.70;;;;;;;31.20;nan;101146.66;5055062;28;20485;-43
2021/07/03 07:40:41;;;;;;;13.67;9.07;;;;;;;31.84;nan;101150.41;5056319;28;20499;-45
2021/07/03 07:43:09;;;;;;;10.50;6.97;;;;;;;31.77;nan;101154.19;5054747;28;20787;-46
2021/07/03 07:45:37;;;;;;;12.43;7.80;;;;;;;31.30;nan;101149.88;5036205;28;20466;-45
2021/07/03 07:48:20;;;;;;;7.60;4.83;;;;;;;31.21;nan;101161.75;5034795;28;20943;-47
2021/07/03 07:50:47;;;;;;;16.50;9.97;;;;;;;31.74;nan;101157.84;5046994;28;20486;-44
2021/07/03 07:53:15;;;;;;;7.07;4.20;;;;;;;31.80;nan;101148.75;5054543;28;20959;-46
2021/07/03 07:55:43;;;;;;;8.23;4.47;;;;;;;31.87;nan;101162.72;5055768;28;20468;-45
2021/07/03 07:58:11;;;;;;;8.63;5.00;;;;;;;31.78;nan;101156.81;5054368;28;20479;-44
2021/07/03 08:00:39;;;;;;;9.13;6.30;;;;;;;32.48;nan;101154.84;5055590;28;21035;-44
2021/07/03 08:03:07;;;;;;;12.00;8.50;;;;;;;32.86;nan;101149.56;5054463;28;20481;-44
2021/07/03 08:05:35;;;;;;;7.47;4.30;;;;;;;32.02;nan;101147.84;5055580;28;20470;-44
2021/07/03 08:08:03;;;;;;;10.53;4.97;;;;;;;32.62;nan;101141.72;5053457;28;20484;-47
2021/07/03 08:10:31;;;;;;;6.17;4.20;;;;;;;32.45;nan;101145.16;5056012;28;20482;-45
2021/07/03 08:12:59;;;;;;;7.40;4.30;;;;;;;31.97;nan;101139.19;5054016;28;20495;-43
2021/07/03 08:15:27;;;;;;;9.43;6.03;;;;;;;32.53;nan;101142.13;5055092;28;20809;-44
2021/07/03 08:17:55;;;;;;;6.33;4.50;;;;;;;32.68;nan;101140.56;5054234;28;20488;-45
2021/07/03 08:20:23;;;;;;;9.37;5.23;;;;;;;32.97;nan;101141.06;5055473;28;20894;-44
2021/07/03 08:22:52;;;;;;;15.40;7.50;;;;;;;32.15;nan;101143.72;5054009;28;20485;-46
2021/07/03 08:25:21;;;;;;;15.30;9.20;;;;;;;32.65;nan;101133.56;5054576;28;20782;-48
2021/07/03 08:27:50;;;;;;;34.83;11.43;;;;;;;31.57;nan;101131.91;5053349;28;20490;-45
2021/07/03 08:30:20;;;;;;;11.47;5.10;;;;;;;31.55;nan;101125.78;5055628;28;20492;-45
2021/07/03 08:32:48;;;;;;;45.20;9.30;;;;;;;32.05;nan;101137.91;5043735;28;20470;-45
2021/07/03 08:35:17;;;;;;;26.47;7.70;;;;;;;32.38;nan;101132.97;5055142;28;20473;-46
2021/07/03 08:37:44;;;;;;;18.00;6.87;;;;;;;31.84;nan;101134.41;5056593;28;20499;-48
2021/07/03 08:40:13;;;;;;;6.80;4.70;;;;;;;32.11;nan;101131.47;5058717;28;20965;-49
2021/07/03 08:42:41;;;;;;;8.50;5.17;;;;;;;32.44;nan;101132.72;5048646;28;20488;-46
2021/07/03 08:45:11;;;;;;;7.30;4.27;;;;;;;31.56;nan;101138.16;5054720;28;20543;-51
2021/07/03 08:47:41;;;;;;;6.57;4.27;;;;;;;32.89;nan;101137.88;5054090;28;20818;-46
2021/07/03 08:50:11;;;;;;;10.73;5.00;;;;;;;32.77;nan;101123.25;5059147;28;20933;-49
2021/07/03 08:52:39;;;;;;;9.27;4.83;;;;;;;32.91;nan;101136.81;5054400;28;20496;-47
2021/07/03 08:55:14;;;;;;;9.00;4.80;;;;;;;32.82;nan;101132.81;5055569;28;20465;-46
2021/07/03 08:57:44;;;;;;;6.50;4.13;;;;;;;32.67;nan;101134.38;5056229;28;20488;-47
2021/07/03 09:00:13;;;;;;;7.00;4.57;;;;;;;32.19;nan;101134.66;5058486;28;20477;-47
2021/07/03 09:02:44;;;;;;;9.90;4.63;;;;;;;31.53;nan;101130.31;5054197;28;20522;-47
2021/07/03 09:05:20;;;;;;;6.90;4.07;;;;;;;31.76;nan;101126.69;5055418;28;20498;-47
2021/07/03 09:07:48;;;;;;;14.80;8.93;;;;;;;32.63;nan;101127.44;5045791;28;20485;-45
2021/07/03 09:10:21;;;;;;;11.80;8.20;;;;;;;32.83;nan;101123.84;5055337;28;20489;-47
2021/07/03 09:12:50;;;;;;;8.97;4.10;;;;;;;32.44;nan;101117.59;5045976;28;20493;-45
2021/07/03 09:15:20;;;;;;;7.23;3.60;;;;;;;32.56;nan;101121.50;5055068;28;21001;-47
2021/07/03 09:17:51;;;;;;;10.77;6.40;;;;;;;32.02;nan;101126.50;5052722;28;20482;-46
2021/07/03 09:20:30;;;;;;;7.20;4.60;;;;;;;31.75;nan;101124.94;5055169;28;20477;-47
2021/07/03 09:23:02;;;;;;;6.10;3.70;;;;;;;31.45;nan;101124.41;5043725;28;20482;-47
2021/07/03 09:25:30;;;;;;;5.97;3.83;;;;;;;32.54;nan;101117.19;5054753;28;20484;-48
2021/07/03 09:28:03;;;;;;;9.73;4.47;;;;;;;32.64;nan;101117.63;5053780;28;20477;-50
2021/07/03 09:30:32;;;;;;;6.93;3.67;;;;;;;32.54;nan;101107.38;5055071;28;20484;-46
2021/07/03 09:33:01;;;;;;;13.03;7.67;;;;;;;32.48;nan;101112.13;5053879;28;20797;-49
2021/07/03 09:35:29;;;;;;;7.27;4.53;;;;;;;32.09;nan;101106.63;5053159;28;20467;-47
2021/07/03 09:38:04;;;;;;;6.10;3.67;;;;;;;32.50;nan;101099.56;5043483;28;20792;-46
2021/07/03 09:40:35;;;;;;;5.57;3.70;;;;;;;31.94;nan;101113.53;5055395;28;20479;-47
2021/07/03 09:43:05;;;;;;;6.70;3.87;;;;;;;31.51;nan;101122.38;5053777;28;20491;-49
2021/07/03 09:45:32;;;;;;;6.67;3.73;;;;;;;32.79;nan;101116.03;5054382;28;20462;-45
2021/07/03 09:48:07;;;;;;;23.90;15.03;;;;;;;32.76;nan;101118.84;5053611;28;20508;-47
2021/07/03 09:50:35;;;;;;;133.50;82.50;;;;;;;32.73;nan;101115.41;5054914;28;20793;-46
2021/07/03 09:53:02;;;;;;;14.40;8.33;;;;;;;31.02;nan;101117.19;5049871;28;20482;-46
2021/07/03 09:55:30;;;;;;;15.53;9.30;;;;;;;31.48;nan;101110.97;5055570;28;20486;-50
2021/07/03 09:57:58;;;;;;;48.60;29.57;;;;;;;31.95;nan;101130.38;5056607;28;20476;-49
2021/07/03 10:00:26;;;;;;;33.13;20.23;;;;;;;32.64;nan;101125.66;5057937;28;20488;-48
2021/07/03 10:02:54;;;;;;;19.60;12.70;;;;;;;32.71;nan;101122.59;5054886;28;20492;-47
2021/07/03 10:05:23;;;;;;;6.30;3.73;;;;;;;32.56;nan;101112.63;5057715;28;20458;-45
2021/07/03 10:07:56;;;;;;;12.80;6.40;;;;;;;32.73;nan;101117.19;5043969;28;20475;-45
2021/07/03 10:10:26;;;;;;;63.07;23.63;;;;;;;31.93;nan;101118.00;5058297;28;20480;-45
2021/07/03 10:12:59;;;;;;;9.67;5.33;;;;;;;31.41;nan;101117.47;5049726;28;20481;-45
2021/07/03 10:15:28;;;;;;;10.77;4.97;;;;;;;31.51;nan;101114.38;5057964;28;20486;-45
2021/07/03 10:18:10;;;;;;;10.27;5.73;;;;;;;32.39;nan;101114.22;5055436;28;20489;-45
2021/07/03 10:20:39;;;;;;;9.47;5.30;;;;;;;32.26;nan;101118.38;5057915;28;20480;-45
2021/07/03 10:23:07;;;;;;;10.20;5.40;;;;;;;31.26;nan;101117.13;5062157;28;20489;-44
2021/07/03 10:25:37;;;;;;;8.60;4.73;;;;;;;32.14;nan;101119.81;5057655;28;20450;-45
2021/07/03 10:28:08;;;;;;;7.27;3.93;;;;;;;31.96;nan;101121.44;5062095;28;20793;-44
2021/07/03 10:30:37;;;;;;;9.07;5.17;;;;;;;32.25;nan;101119.31;5057820;28;20482;-46
2021/07/03 10:33:06;;;;;;;7.80;4.57;;;;;;;31.83;nan;101119.28;5043985;28;20485;-47
2021/07/03 10:35:46;;;;;;;9.43;4.30;;;;;;;31.10;nan;101117.72;5057498;28;20486;-45
2021/07/03 10:38:19;;;;;;;21.00;14.60;;;;;;;33.17;nan;101110.72;5056573;28;20476;-45
2021/07/03 10:40:46;;;;;;;7.50;4.60;;;;;;;33.31;nan;101104.69;5057928;28;20469;-45
2021/07/03 10:43:15;;;;;;;7.37;3.90;;;;;;;33.29;nan;101103.91;5056472;28;20487;-44
2021/07/03 10:45:45;;;;;;;7.43;3.50;;;;;;;33.08;nan;101105.81;5056996;28;20464;-46
2021/07/03 10:48:15;;;;;;;12.10;6.50;;;;;;;32.72;nan;101110.13;5056362;28;20482;-45
2021/07/03 10:50:45;;;;;;;7.30;3.20;;;;;;;33.58;nan;101103.44;5057553;28;20474;-45
2021/07/03 10:53:23;;;;;;;10.33;5.60;;;;;;;32.75;nan;101101.09;5062100;28;20490;-46
2021/07/03 10:55:51;;;;;;;7.33;3.40;;;;;;;32.51;nan;101103.97;5057257;28;20801;-45
2021/07/03 10:58:20;;;;;;;7.43;4.43;;;;;;;33.03;nan;101099.81;5053725;28;20485;-48
2021/07/03 11:00:50;;;;;;;5.73;3.40;;;;;;;33.38;nan;101097.25;5057317;28;20967;-46
2021/07/03 11:03:23;;;;;;;6.00;3.53;;;;;;;33.07;nan;101104.09;5057388;28;20482;-46
2021/07/03 11:05:52;;;;;;;14.90;6.80;;;;;;;33.67;nan;101097.59;5057141;28;20466;-48
2021/07/03 11:08:25;;;;;;;5.83;3.47;;;;;;;34.02;nan;101091.38;5061597;28;20834;-46
2021/07/03 11:10:53;;;;;;;30.57;20.23;;;;;;;34.55;nan;101094.00;5057287;28;20471;-44
2021/07/03 11:13:22;;;;;;;9.13;5.20;;;;;;;33.12;nan;101086.03;5040573;28;20471;-48
2021/07/03 11:15:50;;;;;;;6.37;3.97;;;;;;;33.81;nan;101091.56;5057134;28;20490;-47
2021/07/03 11:18:18;;;;;;;5.83;3.20;;;;;;;34.44;nan;101097.25;5062998;28;20488;-45
2021/07/03 11:20:46;;;;;;;9.73;4.40;;;;;;;34.12;nan;101098.00;5057089;28;20476;-47
2021/07/03 11:23:19;;;;;;;4.67;2.87;;;;;;;34.65;nan;101099.72;5062076;28;20798;-46
2021/07/03 11:25:47;;;;;;;4.50;2.70;;;;;;;34.44;nan;101094.59;5056707;28;20474;-44
2021/07/03 11:28:17;;;;;;;6.93;3.63;;;;;;;35.07;nan;101092.03;5058632;28;20507;-46
2021/07/03 11:30:49;;;;;;;5.83;3.50;;;;;;;33.58;nan;101093.59;5056429;28;20575;-46
2021/07/03 11:33:17;;;;;;;6.17;2.90;;;;;;;34.46;nan;101088.16;5063217;28;20509;-46
2021/07/03 11:35:46;;;;;;;4.90;2.70;;;;;;;33.48;nan;101087.81;5056324;28;20479;-47
2021/07/03 11:38:19;;;;;;;4.47;2.60;;;;;;;33.79;nan;101086.28;5061265;28;20486;-48